sensor_id;sensor_type;location;lat;lon;timestamp;P1;durP1;ratioP1;P2;durP2;ratioP2
59830;SDS011;45711;50.108;13.712;2023-08-08T00:01:43;4.50;;;1.30;;
59830;SDS011;45711;50.108;13.712;2023-08-08T00:04:09;4.05;;;1.70;;
59830;SDS011;45711;50.108;13.712;2023-08-08T00:06:35;5.00;;;1.50;;
59830;SDS011;45711;50.108;13.712;2023-08-08T00:09:01;2.90;;;1.55;;
59830;SDS011;45711;50.108;13.712;2023-08-08T00:11:26;4.57;;;1.90;;
59830;SDS011;45711;50.108;13.712;2023-08-08T00:13:56;10.63;;;1.83;;
59830;SDS011;45711;50.108;13.712;2023-08-08T00:16:22;5.43;;;1.70;;
59830;SDS011;45711;50.108;13.712;2023-08-08T00:18:48;3.45;;;1.70;;
59830;SDS011;45711;50.108;13.712;2023-08-08T00:21:15;6.55;;;2.05;;
59830;SDS011;45711;50.108;13.712;2023-08-08T00:23:41;5.18;;;1.90;;
59830;SDS011;45711;50.108;13.712;2023-08-08T00:26:06;5.30;;;1.80;;
59830;SDS011;45711;50.108;13.712;2023-08-08T00:28:32;5.88;;;2.10;;
59830;SDS011;45711;50.108;13.712;2023-08-08T00:30:59;4.88;;;1.88;;
59830;SDS011;45711;50.108;13.712;2023-08-08T00:33:25;2.85;;;1.60;;
59830;SDS011;45711;50.108;13.712;2023-08-08T00:35:50;4.18;;;1.92;;
59830;SDS011;45711;50.108;13.712;2023-08-08T00:38:16;8.55;;;1.98;;
59830;SDS011;45711;50.108;13.712;2023-08-08T00:40:43;4.18;;;1.90;;
59830;SDS011;45711;50.108;13.712;2023-08-08T00:43:09;5.75;;;1.80;;
59830;SDS011;45711;50.108;13.712;2023-08-08T00:45:34;4.05;;;2.10;;
59830;SDS011;45711;50.108;13.712;2023-08-08T00:48:02;4.28;;;1.80;;
59830;SDS011;45711;50.108;13.712;2023-08-08T00:50:27;4.75;;;2.03;;
59830;SDS011;45711;50.108;13.712;2023-08-08T00:52:53;4.05;;;2.00;;
59830;SDS011;45711;50.108;13.712;2023-08-08T00:55:19;8.90;;;2.17;;
59830;SDS011;45711;50.108;13.712;2023-08-08T00:57:45;6.13;;;2.08;;
59830;SDS011;45711;50.108;13.712;2023-08-08T01:00:11;4.68;;;1.88;;
59830;SDS011;45711;50.108;13.712;2023-08-08T01:02:37;4.18;;;2.08;;
59830;SDS011;45711;50.108;13.712;2023-08-08T01:05:04;4.68;;;1.90;;
59830;SDS011;45711;50.108;13.712;2023-08-08T01:07:33;7.25;;;2.05;;
59830;SDS011;45711;50.108;13.712;2023-08-08T01:10:05;8.25;;;2.15;;
59830;SDS011;45711;50.108;13.712;2023-08-08T01:12:33;5.25;;;1.90;;
59830;SDS011;45711;50.108;13.712;2023-08-08T01:15:05;7.15;;;2.03;;
59830;SDS011;45711;50.108;13.712;2023-08-08T01:17:34;2.47;;;1.60;;
59830;SDS011;45711;50.108;13.712;2023-08-08T01:20:01;6.78;;;1.92;;
59830;SDS011;45711;50.108;13.712;2023-08-08T01:22:32;6.03;;;1.70;;
59830;SDS011;45711;50.108;13.712;2023-08-08T01:25:04;5.75;;;1.80;;
59830;SDS011;45711;50.108;13.712;2023-08-08T01:27:31;9.90;;;2.30;;
59830;SDS011;45711;50.108;13.712;2023-08-08T01:29:57;7.10;;;1.88;;
59830;SDS011;45711;50.108;13.712;2023-08-08T01:32:22;9.93;;;2.08;;
59830;SDS011;45711;50.108;13.712;2023-08-08T01:34:48;3.85;;;2.00;;
59830;SDS011;45711;50.108;13.712;2023-08-08T01:37:14;3.63;;;1.80;;
59830;SDS011;45711;50.108;13.712;2023-08-08T01:39:44;5.05;;;1.50;;
59830;SDS011;45711;50.108;13.712;2023-08-08T01:42:13;4.97;;;1.83;;
59830;SDS011;45711;50.108;13.712;2023-08-08T01:44:40;5.50;;;2.10;;
59830;SDS011;45711;50.108;13.712;2023-08-08T01:47:07;2.85;;;1.85;;
59830;SDS011;45711;50.108;13.712;2023-08-08T01:49:33;2.85;;;1.77;;
59830;SDS011;45711;50.108;13.712;2023-08-08T01:51:58;4.32;;;1.92;;
59830;SDS011;45711;50.108;13.712;2023-08-08T01:54:24;4.70;;;2.00;;
59830;SDS011;45711;50.108;13.712;2023-08-08T01:56:50;2.83;;;1.80;;
59830;SDS011;45711;50.108;13.712;2023-08-08T01:59:17;5.03;;;2.13;;
59830;SDS011;45711;50.108;13.712;2023-08-08T02:01:43;5.28;;;1.80;;
59830;SDS011;45711;50.108;13.712;2023-08-08T02:04:08;5.13;;;1.80;;
59830;SDS011;45711;50.108;13.712;2023-08-08T02:06:34;2.28;;;1.60;;
59830;SDS011;45711;50.108;13.712;2023-08-08T02:09:00;7.80;;;1.80;;
59830;SDS011;45711;50.108;13.712;2023-08-08T02:11:25;5.78;;;1.67;;
59830;SDS011;45711;50.108;13.712;2023-08-08T02:13:51;3.92;;;1.63;;
59830;SDS011;45711;50.108;13.712;2023-08-08T02:16:18;5.20;;;1.63;;
59830;SDS011;45711;50.108;13.712;2023-08-08T02:18:44;3.47;;;1.63;;
59830;SDS011;45711;50.108;13.712;2023-08-08T02:21:10;2.95;;;1.60;;
59830;SDS011;45711;50.108;13.712;2023-08-08T02:23:35;7.03;;;1.70;;
59830;SDS011;45711;50.108;13.712;2023-08-08T02:26:01;4.13;;;1.80;;
59830;SDS011;45711;50.108;13.712;2023-08-08T02:28:27;3.35;;;1.60;;
59830;SDS011;45711;50.108;13.712;2023-08-08T02:30:53;3.63;;;1.60;;
59830;SDS011;45711;50.108;13.712;2023-08-08T02:33:20;1.92;;;1.60;;
59830;SDS011;45711;50.108;13.712;2023-08-08T02:35:46;9.32;;;1.67;;
59830;SDS011;45711;50.108;13.712;2023-08-08T02:38:12;4.75;;;1.73;;
59830;SDS011;45711;50.108;13.712;2023-08-08T02:40:37;6.63;;;1.60;;
59830;SDS011;45711;50.108;13.712;2023-08-08T02:43:04;5.65;;;1.90;;
59830;SDS011;45711;50.108;13.712;2023-08-08T02:45:29;6.00;;;1.50;;
59830;SDS011;45711;50.108;13.712;2023-08-08T02:47:55;4.25;;;1.30;;
59830;SDS011;45711;50.108;13.712;2023-08-08T02:50:22;4.82;;;1.63;;
59830;SDS011;45711;50.108;13.712;2023-08-08T02:52:47;6.65;;;1.50;;
59830;SDS011;45711;50.108;13.712;2023-08-08T02:55:13;5.20;;;1.60;;
59830;SDS011;45711;50.108;13.712;2023-08-08T02:57:39;5.10;;;1.63;;
59830;SDS011;45711;50.108;13.712;2023-08-08T03:00:05;4.13;;;1.58;;
59830;SDS011;45711;50.108;13.712;2023-08-08T03:02:33;3.40;;;1.67;;
59830;SDS011;45711;50.108;13.712;2023-08-08T03:04:58;7.53;;;1.55;;
59830;SDS011;45711;50.108;13.712;2023-08-08T03:07:25;4.38;;;1.90;;
59830;SDS011;45711;50.108;13.712;2023-08-08T03:09:51;5.10;;;1.80;;
59830;SDS011;45711;50.108;13.712;2023-08-08T03:30:25;5.13;;;1.60;;
59830;SDS011;45711;50.108;13.712;2023-08-08T03:41:19;4.47;;;1.15;;
59830;SDS011;45711;50.108;13.712;2023-08-08T04:35:28;3.30;;;1.50;;
59830;SDS011;45711;50.108;13.712;2023-08-08T04:37:54;2.33;;;1.42;;
59830;SDS011;45711;50.108;13.712;2023-08-08T06:30:12;2.10;;;1.63;;
59830;SDS011;45711;50.108;13.712;2023-08-08T06:32:38;2.10;;;1.70;;
59830;SDS011;45711;50.108;13.712;2023-08-08T06:35:09;3.45;;;2.10;;
59830;SDS011;45711;50.108;13.712;2023-08-08T06:37:36;2.55;;;1.23;;
59830;SDS011;45711;50.108;13.712;2023-08-08T06:42:37;3.22;;;1.95;;
59830;SDS011;45711;50.108;13.712;2023-08-08T06:45:12;3.72;;;1.60;;
59830;SDS011;45711;50.108;13.712;2023-08-08T06:47:38;2.60;;;1.52;;
59830;SDS011;45711;50.108;13.712;2023-08-08T06:50:05;3.78;;;1.30;;
59830;SDS011;45711;50.108;13.712;2023-08-08T06:52:40;2.17;;;1.27;;
59830;SDS011;45711;50.108;13.712;2023-08-08T06:55:09;3.15;;;1.50;;
59830;SDS011;45711;50.108;13.712;2023-08-08T06:57:36;5.00;;;1.70;;
59830;SDS011;45711;50.108;13.712;2023-08-08T07:00:02;1.92;;;1.50;;
59830;SDS011;45711;50.108;13.712;2023-08-08T07:02:31;2.65;;;1.45;;
59830;SDS011;45711;50.108;13.712;2023-08-08T07:04:57;1.48;;;1.27;;
59830;SDS011;45711;50.108;13.712;2023-08-08T07:07:27;4.35;;;1.23;;
59830;SDS011;45711;50.108;13.712;2023-08-08T07:09:54;4.47;;;1.55;;
59830;SDS011;45711;50.108;13.712;2023-08-08T07:12:20;1.83;;;1.30;;
59830;SDS011;45711;50.108;13.712;2023-08-08T07:14:46;4.32;;;1.40;;
59830;SDS011;45711;50.108;13.712;2023-08-08T07:17:12;2.58;;;1.55;;
59830;SDS011;45711;50.108;13.712;2023-08-08T07:19:42;1.42;;;1.13;;
59830;SDS011;45711;50.108;13.712;2023-08-08T07:22:08;2.03;;;1.10;;
59830;SDS011;45711;50.108;13.712;2023-08-08T07:24:34;4.70;;;1.20;;
59830;SDS011;45711;50.108;13.712;2023-08-08T07:29:29;1.67;;;1.30;;
59830;SDS011;45711;50.108;13.712;2023-08-08T07:31:57;5.93;;;1.27;;
59830;SDS011;45711;50.108;13.712;2023-08-08T07:34:23;2.22;;;1.20;;
59830;SDS011;45711;50.108;13.712;2023-08-08T07:36:53;3.03;;;1.30;;
59830;SDS011;45711;50.108;13.712;2023-08-08T07:39:19;2.20;;;1.40;;
59830;SDS011;45711;50.108;13.712;2023-08-08T07:41:45;4.47;;;1.10;;
59830;SDS011;45711;50.108;13.712;2023-08-08T07:44:10;1.63;;;1.10;;
59830;SDS011;45711;50.108;13.712;2023-08-08T07:46:36;2.13;;;1.13;;
59830;SDS011;45711;50.108;13.712;2023-08-08T07:49:05;2.22;;;1.20;;
59830;SDS011;45711;50.108;13.712;2023-08-08T07:51:31;3.05;;;1.15;;
59830;SDS011;45711;50.108;13.712;2023-08-08T07:53:59;1.52;;;1.20;;
59830;SDS011;45711;50.108;13.712;2023-08-08T07:56:25;2.08;;;1.33;;
59830;SDS011;45711;50.108;13.712;2023-08-08T07:58:51;4.70;;;1.20;;
59830;SDS011;45711;50.108;13.712;2023-08-08T08:01:17;1.52;;;1.20;;
59830;SDS011;45711;50.108;13.712;2023-08-08T08:03:43;1.40;;;1.10;;
59830;SDS011;45711;50.108;13.712;2023-08-08T08:06:09;2.42;;;1.23;;
59830;SDS011;45711;50.108;13.712;2023-08-08T08:08:35;3.58;;;1.10;;
59830;SDS011;45711;50.108;13.712;2023-08-08T08:11:08;5.90;;;1.30;;
59830;SDS011;45711;50.108;13.712;2023-08-08T08:16:10;2.55;;;1.10;;
59830;SDS011;45711;50.108;13.712;2023-08-08T08:18:36;2.42;;;1.15;;
59830;SDS011;45711;50.108;13.712;2023-08-08T08:21:01;3.20;;;1.08;;
59830;SDS011;45711;50.108;13.712;2023-08-08T08:25:57;1.25;;;1.00;;
59830;SDS011;45711;50.108;13.712;2023-08-08T08:28:24;5.00;;;1.20;;
59830;SDS011;45711;50.108;13.712;2023-08-08T08:30:50;2.65;;;1.10;;
59830;SDS011;45711;50.108;13.712;2023-08-08T08:33:16;5.05;;;1.00;;
59830;SDS011;45711;50.108;13.712;2023-08-08T08:35:42;1.90;;;1.00;;
59830;SDS011;45711;50.108;13.712;2023-08-08T08:38:09;1.63;;;0.93;;
59830;SDS011;45711;50.108;13.712;2023-08-08T08:40:36;2.58;;;1.10;;
59830;SDS011;45711;50.108;13.712;2023-08-08T08:43:06;1.70;;;0.95;;
59830;SDS011;45711;50.108;13.712;2023-08-08T08:45:36;4.90;;;1.00;;
59830;SDS011;45711;50.108;13.712;2023-08-08T08:48:04;2.55;;;1.17;;
59830;SDS011;45711;50.108;13.712;2023-08-08T08:50:34;3.80;;;1.25;;
59830;SDS011;45711;50.108;13.712;2023-08-08T08:53:00;3.17;;;1.20;;
59830;SDS011;45711;50.108;13.712;2023-08-08T08:55:27;3.20;;;1.00;;
59830;SDS011;45711;50.108;13.712;2023-08-08T08:57:53;2.42;;;1.15;;
59830;SDS011;45711;50.108;13.712;2023-08-08T09:00:19;2.75;;;1.05;;
59830;SDS011;45711;50.108;13.712;2023-08-08T09:02:53;2.97;;;0.95;;
59830;SDS011;45711;50.108;13.712;2023-08-08T09:05:38;1.25;;;1.00;;
59830;SDS011;45711;50.108;13.712;2023-08-08T09:08:06;1.10;;;0.90;;
59830;SDS011;45711;50.108;13.712;2023-08-08T09:10:32;3.13;;;1.17;;
59830;SDS011;45711;50.108;13.712;2023-08-08T09:12:57;2.40;;;1.10;;
59830;SDS011;45711;50.108;13.712;2023-08-08T09:15:23;1.95;;;1.17;;
59830;SDS011;45711;50.108;13.712;2023-08-08T09:17:49;1.23;;;0.98;;
59830;SDS011;45711;50.108;13.712;2023-08-08T09:20:17;4.43;;;1.10;;
59830;SDS011;45711;50.108;13.712;2023-08-08T09:22:42;2.85;;;1.00;;
59830;SDS011;45711;50.108;13.712;2023-08-08T09:25:08;3.75;;;1.10;;
59830;SDS011;45711;50.108;13.712;2023-08-08T09:32:44;2.38;;;1.10;;
59830;SDS011;45711;50.108;13.712;2023-08-08T09:35:10;1.00;;;0.90;;
59830;SDS011;45711;50.108;13.712;2023-08-08T09:37:38;1.40;;;1.00;;
59830;SDS011;45711;50.108;13.712;2023-08-08T09:40:04;2.88;;;1.13;;
59830;SDS011;45711;50.108;13.712;2023-08-08T09:42:33;1.42;;;1.00;;
59830;SDS011;45711;50.108;13.712;2023-08-08T09:45:00;2.75;;;1.08;;
59830;SDS011;45711;50.108;13.712;2023-08-08T10:00:24;2.70;;;1.20;;
59830;SDS011;45711;50.108;13.712;2023-08-08T10:05:31;4.45;;;1.10;;
59830;SDS011;45711;50.108;13.712;2023-08-08T10:18:56;1.40;;;1.02;;
59830;SDS011;45711;50.108;13.712;2023-08-08T10:21:24;2.15;;;1.00;;
59830;SDS011;45711;50.108;13.712;2023-08-08T10:23:49;3.15;;;1.05;;
59830;SDS011;45711;50.108;13.712;2023-08-08T10:26:27;2.00;;;1.10;;
59830;SDS011;45711;50.108;13.712;2023-08-08T10:28:53;2.75;;;1.05;;
59830;SDS011;45711;50.108;13.712;2023-08-08T10:31:21;2.70;;;1.00;;
59830;SDS011;45711;50.108;13.712;2023-08-08T10:33:47;2.30;;;1.00;;
59830;SDS011;45711;50.108;13.712;2023-08-08T10:36:14;2.47;;;1.13;;
59830;SDS011;45711;50.108;13.712;2023-08-08T10:38:41;1.42;;;0.80;;
59830;SDS011;45711;50.108;13.712;2023-08-08T10:41:09;1.45;;;0.95;;
59830;SDS011;45711;50.108;13.712;2023-08-08T10:43:36;4.18;;;1.13;;
59830;SDS011;45711;50.108;13.712;2023-08-08T10:46:02;1.85;;;0.90;;
59830;SDS011;45711;50.108;13.712;2023-08-08T10:48:28;2.50;;;1.08;;
59830;SDS011;45711;50.108;13.712;2023-08-08T10:50:54;3.92;;;1.02;;
59830;SDS011;45711;50.108;13.712;2023-08-08T10:53:23;3.25;;;0.88;;
59830;SDS011;45711;50.108;13.712;2023-08-08T10:55:56;1.20;;;0.82;;
59830;SDS011;45711;50.108;13.712;2023-08-08T10:58:23;2.20;;;0.90;;
59830;SDS011;45711;50.108;13.712;2023-08-08T11:01:00;1.98;;;1.10;;
59830;SDS011;45711;50.108;13.712;2023-08-08T11:03:26;1.48;;;0.90;;
59830;SDS011;45711;50.108;13.712;2023-08-08T11:05:54;2.03;;;1.10;;
59830;SDS011;45711;50.108;13.712;2023-08-08T11:08:20;1.13;;;0.80;;
59830;SDS011;45711;50.108;13.712;2023-08-08T11:10:50;1.75;;;0.90;;
59830;SDS011;45711;50.108;13.712;2023-08-08T11:13:17;1.48;;;0.90;;
59830;SDS011;45711;50.108;13.712;2023-08-08T11:15:42;1.25;;;0.98;;
59830;SDS011;45711;50.108;13.712;2023-08-08T11:18:08;5.72;;;1.10;;
59830;SDS011;45711;50.108;13.712;2023-08-08T11:20:35;2.20;;;1.02;;
59830;SDS011;45711;50.108;13.712;2023-08-08T11:23:01;1.35;;;0.75;;
59830;SDS011;45711;50.108;13.712;2023-08-08T11:25:30;2.58;;;0.90;;
59830;SDS011;45711;50.108;13.712;2023-08-08T11:27:58;2.20;;;0.95;;
59830;SDS011;45711;50.108;13.712;2023-08-08T11:30:24;3.05;;;0.98;;
59830;SDS011;45711;50.108;13.712;2023-08-08T11:32:53;1.38;;;0.93;;
59830;SDS011;45711;50.108;13.712;2023-08-08T11:35:20;2.05;;;1.00;;
59830;SDS011;45711;50.108;13.712;2023-08-08T11:37:47;2.00;;;0.90;;
59830;SDS011;45711;50.108;13.712;2023-08-08T11:40:14;1.60;;;1.02;;
59830;SDS011;45711;50.108;13.712;2023-08-08T11:42:40;2.17;;;0.98;;
59830;SDS011;45711;50.108;13.712;2023-08-08T11:45:09;3.03;;;0.73;;
59830;SDS011;45711;50.108;13.712;2023-08-08T11:47:37;1.92;;;0.93;;
59830;SDS011;45711;50.108;13.712;2023-08-08T11:50:03;1.27;;;0.90;;
59830;SDS011;45711;50.108;13.712;2023-08-08T11:52:30;0.98;;;0.82;;
59830;SDS011;45711;50.108;13.712;2023-08-08T11:54:57;3.00;;;0.90;;
59830;SDS011;45711;50.108;13.712;2023-08-08T11:57:25;2.00;;;1.00;;
59830;SDS011;45711;50.108;13.712;2023-08-08T11:59:52;1.17;;;0.93;;
59830;SDS011;45711;50.108;13.712;2023-08-08T12:02:19;1.75;;;0.88;;
59830;SDS011;45711;50.108;13.712;2023-08-08T12:04:45;1.73;;;0.90;;
59830;SDS011;45711;50.108;13.712;2023-08-08T12:07:11;3.85;;;1.00;;
59830;SDS011;45711;50.108;13.712;2023-08-08T12:09:36;2.97;;;0.95;;
59830;SDS011;45711;50.108;13.712;2023-08-08T12:32:05;3.90;;;1.08;;
59830;SDS011;45711;50.108;13.712;2023-08-08T12:34:33;1.58;;;0.85;;
59830;SDS011;45711;50.108;13.712;2023-08-08T12:36:59;2.03;;;0.90;;
59830;SDS011;45711;50.108;13.712;2023-08-08T12:39:25;3.42;;;0.98;;
59830;SDS011;45711;50.108;13.712;2023-08-08T12:41:50;2.55;;;0.77;;
59830;SDS011;45711;50.108;13.712;2023-08-08T12:44:16;3.78;;;1.02;;
59830;SDS011;45711;50.108;13.712;2023-08-08T12:46:42;1.23;;;0.90;;
59830;SDS011;45711;50.108;13.712;2023-08-08T12:49:09;2.50;;;1.10;;
59830;SDS011;45711;50.108;13.712;2023-08-08T12:51:34;3.10;;;1.00;;
59830;SDS011;45711;50.108;13.712;2023-08-08T12:54:00;1.95;;;0.98;;
59830;SDS011;45711;50.108;13.712;2023-08-08T12:56:26;4.15;;;1.20;;
59830;SDS011;45711;50.108;13.712;2023-08-08T13:06:37;2.35;;;1.00;;
59830;SDS011;45711;50.108;13.712;2023-08-08T13:09:03;1.90;;;1.00;;
59830;SDS011;45711;50.108;13.712;2023-08-08T13:17:13;1.90;;;0.82;;
59830;SDS011;45711;50.108;13.712;2023-08-08T13:19:39;2.08;;;0.90;;
59830;SDS011;45711;50.108;13.712;2023-08-08T13:22:12;3.85;;;1.00;;
59830;SDS011;45711;50.108;13.712;2023-08-08T13:27:13;1.40;;;0.98;;
59830;SDS011;45711;50.108;13.712;2023-08-08T13:32:36;3.08;;;1.08;;
59830;SDS011;45711;50.108;13.712;2023-08-08T13:35:02;1.58;;;1.20;;
59830;SDS011;45711;50.108;13.712;2023-08-08T13:37:31;3.03;;;1.02;;
59830;SDS011;45711;50.108;13.712;2023-08-08T13:42:31;1.75;;;1.10;;
59830;SDS011;45711;50.108;13.712;2023-08-08T13:47:32;1.98;;;1.05;;
59830;SDS011;45711;50.108;13.712;2023-08-08T13:53:07;1.00;;;0.70;;
59830;SDS011;45711;50.108;13.712;2023-08-08T13:55:33;1.98;;;1.00;;
59830;SDS011;45711;50.108;13.712;2023-08-08T13:58:04;1.10;;;0.90;;
59830;SDS011;45711;50.108;13.712;2023-08-08T14:03:05;4.72;;;1.08;;
59830;SDS011;45711;50.108;13.712;2023-08-08T14:08:09;2.08;;;1.10;;
59830;SDS011;45711;50.108;13.712;2023-08-08T14:13:11;3.15;;;1.10;;
59830;SDS011;45711;50.108;13.712;2023-08-08T14:15:42;1.20;;;0.90;;
59830;SDS011;45711;50.108;13.712;2023-08-08T14:18:11;1.77;;;0.80;;
59830;SDS011;45711;50.108;13.712;2023-08-08T14:20:39;1.65;;;1.05;;
59830;SDS011;45711;50.108;13.712;2023-08-08T14:23:05;4.82;;;1.10;;
59830;SDS011;45711;50.108;13.712;2023-08-08T14:25:32;4.05;;;1.00;;
59830;SDS011;45711;50.108;13.712;2023-08-08T14:27:58;2.33;;;1.13;;
59830;SDS011;45711;50.108;13.712;2023-08-08T14:30:28;2.22;;;1.10;;
59830;SDS011;45711;50.108;13.712;2023-08-08T14:32:54;1.58;;;0.98;;
59830;SDS011;45711;50.108;13.712;2023-08-08T14:35:20;3.42;;;1.20;;
59830;SDS011;45711;50.108;13.712;2023-08-08T14:37:45;2.85;;;1.23;;
59830;SDS011;45711;50.108;13.712;2023-08-08T14:40:11;2.35;;;1.02;;
59830;SDS011;45711;50.108;13.712;2023-08-08T14:42:47;2.78;;;0.98;;
59830;SDS011;45711;50.108;13.712;2023-08-08T14:45:16;2.38;;;0.90;;
59830;SDS011;45711;50.108;13.712;2023-08-08T14:47:46;2.15;;;1.17;;
59830;SDS011;45711;50.108;13.712;2023-08-08T14:50:17;2.13;;;1.00;;
59830;SDS011;45711;50.108;13.712;2023-08-08T14:52:43;2.10;;;1.10;;
59830;SDS011;45711;50.108;13.712;2023-08-08T14:55:09;5.88;;;1.15;;
59830;SDS011;45711;50.108;13.712;2023-08-08T14:57:37;2.95;;;1.00;;
59830;SDS011;45711;50.108;13.712;2023-08-08T15:00:04;2.60;;;1.02;;
59830;SDS011;45711;50.108;13.712;2023-08-08T15:02:31;1.95;;;0.90;;
59830;SDS011;45711;50.108;13.712;2023-08-08T15:04:57;1.67;;;0.82;;
59830;SDS011;45711;50.108;13.712;2023-08-08T15:07:23;1.83;;;1.10;;
59830;SDS011;45711;50.108;13.712;2023-08-08T15:09:48;3.28;;;1.30;;
59830;SDS011;45711;50.108;13.712;2023-08-08T15:12:18;3.78;;;1.20;;
59830;SDS011;45711;50.108;13.712;2023-08-08T15:14:44;3.13;;;1.02;;
59830;SDS011;45711;50.108;13.712;2023-08-08T15:17:14;1.98;;;1.13;;
59830;SDS011;45711;50.108;13.712;2023-08-08T15:19:40;5.53;;;1.17;;
59830;SDS011;45711;50.108;13.712;2023-08-08T15:22:05;1.52;;;0.98;;
59830;SDS011;45711;50.108;13.712;2023-08-08T15:24:34;1.50;;;0.95;;
59830;SDS011;45711;50.108;13.712;2023-08-08T15:27:01;2.97;;;1.10;;
59830;SDS011;45711;50.108;13.712;2023-08-08T15:29:27;4.57;;;0.93;;
59830;SDS011;45711;50.108;13.712;2023-08-08T15:31:53;1.70;;;1.05;;
59830;SDS011;45711;50.108;13.712;2023-08-08T15:34:23;2.28;;;1.10;;
59830;SDS011;45711;50.108;13.712;2023-08-08T15:36:48;3.53;;;1.25;;
59830;SDS011;45711;50.108;13.712;2023-08-08T15:39:15;1.15;;;0.93;;
59830;SDS011;45711;50.108;13.712;2023-08-08T15:41:41;3.78;;;1.10;;
59830;SDS011;45711;50.108;13.712;2023-08-08T15:44:06;3.55;;;1.15;;
59830;SDS011;45711;50.108;13.712;2023-08-08T15:46:32;3.10;;;1.25;;
59830;SDS011;45711;50.108;13.712;2023-08-08T15:48:57;2.47;;;1.00;;
59830;SDS011;45711;50.108;13.712;2023-08-08T15:51:26;3.05;;;1.17;;
59830;SDS011;45711;50.108;13.712;2023-08-08T15:53:52;3.72;;;1.42;;
59830;SDS011;45711;50.108;13.712;2023-08-08T15:56:18;5.18;;;1.10;;
59830;SDS011;45711;50.108;13.712;2023-08-08T15:58:44;2.80;;;1.10;;
59830;SDS011;45711;50.108;13.712;2023-08-08T16:01:09;3.67;;;1.10;;
59830;SDS011;45711;50.108;13.712;2023-08-08T16:03:35;2.42;;;1.40;;
59830;SDS011;45711;50.108;13.712;2023-08-08T16:06:03;2.30;;;1.10;;
59830;SDS011;45711;50.108;13.712;2023-08-08T16:08:32;1.23;;;0.85;;
59830;SDS011;45711;50.108;13.712;2023-08-08T16:10:58;1.80;;;0.90;;
59830;SDS011;45711;50.108;13.712;2023-08-08T16:13:24;1.30;;;0.75;;
59830;SDS011;45711;50.108;13.712;2023-08-08T16:15:53;2.80;;;1.17;;
59830;SDS011;45711;50.108;13.712;2023-08-08T16:18:18;1.85;;;1.13;;
59830;SDS011;45711;50.108;13.712;2023-08-08T16:20:44;2.60;;;1.50;;
59830;SDS011;45711;50.108;13.712;2023-08-08T16:23:10;2.22;;;1.08;;
59830;SDS011;45711;50.108;13.712;2023-08-08T16:25:37;1.75;;;0.93;;
59830;SDS011;45711;50.108;13.712;2023-08-08T16:28:03;2.35;;;1.20;;
59830;SDS011;45711;50.108;13.712;2023-08-08T16:30:29;1.75;;;1.15;;
59830;SDS011;45711;50.108;13.712;2023-08-08T16:32:55;2.88;;;1.13;;
59830;SDS011;45711;50.108;13.712;2023-08-08T16:35:21;2.15;;;1.10;;
59830;SDS011;45711;50.108;13.712;2023-08-08T16:37:46;1.98;;;1.10;;
59830;SDS011;45711;50.108;13.712;2023-08-08T16:40:12;2.53;;;1.20;;
59830;SDS011;45711;50.108;13.712;2023-08-08T16:42:39;1.98;;;0.90;;
59830;SDS011;45711;50.108;13.712;2023-08-08T16:45:11;1.50;;;0.90;;
59830;SDS011;45711;50.108;13.712;2023-08-08T16:47:36;1.52;;;1.05;;
59830;SDS011;45711;50.108;13.712;2023-08-08T16:50:04;3.75;;;1.02;;
59830;SDS011;45711;50.108;13.712;2023-08-08T16:52:36;1.77;;;1.00;;
59830;SDS011;45711;50.108;13.712;2023-08-08T16:55:11;2.75;;;0.93;;
59830;SDS011;45711;50.108;13.712;2023-08-08T16:57:36;1.15;;;0.88;;
59830;SDS011;45711;50.108;13.712;2023-08-08T17:00:06;4.50;;;1.35;;
59830;SDS011;45711;50.108;13.712;2023-08-08T17:02:35;1.67;;;1.05;;
59830;SDS011;45711;50.108;13.712;2023-08-08T17:05:01;3.10;;;1.15;;
59830;SDS011;45711;50.108;13.712;2023-08-08T17:07:27;1.67;;;0.82;;
59830;SDS011;45711;50.108;13.712;2023-08-08T17:10:04;1.38;;;0.93;;
59830;SDS011;45711;50.108;13.712;2023-08-08T17:12:32;4.05;;;1.00;;
59830;SDS011;45711;50.108;13.712;2023-08-08T17:14:57;1.65;;;1.08;;
59830;SDS011;45711;50.108;13.712;2023-08-08T17:17:24;5.65;;;1.08;;
59830;SDS011;45711;50.108;13.712;2023-08-08T17:19:51;2.67;;;1.00;;
59830;SDS011;45711;50.108;13.712;2023-08-08T17:22:16;1.92;;;0.88;;
59830;SDS011;45711;50.108;13.712;2023-08-08T17:24:42;3.30;;;1.17;;
59830;SDS011;45711;50.108;13.712;2023-08-08T17:27:08;1.48;;;1.02;;
59830;SDS011;45711;50.108;13.712;2023-08-08T17:29:33;3.38;;;1.08;;
59830;SDS011;45711;50.108;13.712;2023-08-08T17:31:59;3.25;;;1.30;;
59830;SDS011;45711;50.108;13.712;2023-08-08T17:34:26;3.83;;;1.00;;
59830;SDS011;45711;50.108;13.712;2023-08-08T17:36:51;7.85;;;1.20;;
59830;SDS011;45711;50.108;13.712;2023-08-08T17:39:17;3.83;;;1.02;;
59830;SDS011;45711;50.108;13.712;2023-08-08T17:41:43;3.42;;;1.10;;
59830;SDS011;45711;50.108;13.712;2023-08-08T17:44:09;2.58;;;1.27;;
59830;SDS011;45711;50.108;13.712;2023-08-08T17:46:34;3.35;;;1.15;;
59830;SDS011;45711;50.108;13.712;2023-08-08T17:51:51;1.75;;;1.10;;
59830;SDS011;45711;50.108;13.712;2023-08-08T17:54:16;1.27;;;1.00;;
59830;SDS011;45711;50.108;13.712;2023-08-08T17:56:42;1.35;;;0.90;;
59830;SDS011;45711;50.108;13.712;2023-08-08T17:59:08;2.20;;;1.25;;
59830;SDS011;45711;50.108;13.712;2023-08-08T18:01:33;2.88;;;1.17;;
59830;SDS011;45711;50.108;13.712;2023-08-08T18:04:01;1.17;;;1.00;;
59830;SDS011;45711;50.108;13.712;2023-08-08T18:06:26;2.45;;;1.25;;
59830;SDS011;45711;50.108;13.712;2023-08-08T18:08:55;2.50;;;1.05;;
59830;SDS011;45711;50.108;13.712;2023-08-08T18:11:29;5.03;;;1.20;;
59830;SDS011;45711;50.108;13.712;2023-08-08T18:13:55;2.35;;;1.20;;
59830;SDS011;45711;50.108;13.712;2023-08-08T18:16:23;3.13;;;1.27;;
59830;SDS011;45711;50.108;13.712;2023-08-08T18:18:51;7.68;;;1.10;;
59830;SDS011;45711;50.108;13.712;2023-08-08T18:21:16;2.17;;;1.17;;
59830;SDS011;45711;50.108;13.712;2023-08-08T18:23:42;1.92;;;1.20;;
59830;SDS011;45711;50.108;13.712;2023-08-08T18:26:09;7.60;;;1.50;;
59830;SDS011;45711;50.108;13.712;2023-08-08T18:28:40;3.40;;;1.25;;
59830;SDS011;45711;50.108;13.712;2023-08-08T18:31:06;3.58;;;1.10;;
59830;SDS011;45711;50.108;13.712;2023-08-08T18:33:31;2.20;;;1.00;;
59830;SDS011;45711;50.108;13.712;2023-08-08T18:35:59;2.55;;;1.00;;
59830;SDS011;45711;50.108;13.712;2023-08-08T18:38:28;3.33;;;1.02;;
59830;SDS011;45711;50.108;13.712;2023-08-08T18:40:54;3.28;;;1.27;;
59830;SDS011;45711;50.108;13.712;2023-08-08T18:43:21;3.20;;;1.02;;
59830;SDS011;45711;50.108;13.712;2023-08-08T18:45:46;7.70;;;1.30;;
59830;SDS011;45711;50.108;13.712;2023-08-08T18:48:18;1.90;;;1.10;;
59830;SDS011;45711;50.108;13.712;2023-08-08T18:50:44;2.92;;;1.23;;
59830;SDS011;45711;50.108;13.712;2023-08-08T18:53:10;3.47;;;1.02;;
59830;SDS011;45711;50.108;13.712;2023-08-08T18:55:36;2.03;;;1.30;;
59830;SDS011;45711;50.108;13.712;2023-08-08T18:58:02;2.08;;;1.10;;
59830;SDS011;45711;50.108;13.712;2023-08-08T19:00:29;2.78;;;1.15;;
59830;SDS011;45711;50.108;13.712;2023-08-08T19:02:55;1.92;;;1.13;;
59830;SDS011;45711;50.108;13.712;2023-08-08T19:05:32;2.50;;;1.20;;
59830;SDS011;45711;50.108;13.712;2023-08-08T19:07:58;2.75;;;1.15;;
59830;SDS011;45711;50.108;13.712;2023-08-08T19:10:23;2.20;;;1.10;;
59830;SDS011;45711;50.108;13.712;2023-08-08T19:12:49;4.10;;;1.27;;
59830;SDS011;45711;50.108;13.712;2023-08-08T19:15:15;2.72;;;1.10;;
59830;SDS011;45711;50.108;13.712;2023-08-08T19:17:42;1.95;;;1.00;;
59830;SDS011;45711;50.108;13.712;2023-08-08T19:20:08;1.27;;;0.90;;